sensor_id;sensor_type;location;lat;lon;timestamp;P1;durP1;ratioP1;P2;durP2;ratioP2
76065;SDS011;64763;48.928;8.474;2023-05-01T00:01:19;8.85;;;6.25;;
76065;SDS011;64763;48.928;8.474;2023-05-01T00:03:44;7.88;;;5.68;;
76065;SDS011;64763;48.928;8.474;2023-05-01T00:06:09;8.27;;;6.05;;
76065;SDS011;64763;48.928;8.474;2023-05-01T00:08:35;10.13;;;5.65;;
76065;SDS011;64763;48.928;8.474;2023-05-01T00:11:03;9.52;;;5.43;;
76065;SDS011;64763;48.928;8.474;2023-05-01T00:13:29;8.85;;;5.88;;
76065;SDS011;64763;48.928;8.474;2023-05-01T00:15:55;8.00;;;5.70;;
76065;SDS011;64763;48.928;8.474;2023-05-01T00:18:21;9.07;;;6.07;;
76065;SDS011;64763;48.928;8.474;2023-05-01T00:20:46;8.25;;;6.28;;
76065;SDS011;64763;48.928;8.474;2023-05-01T00:23:12;8.43;;;6.55;;
76065;SDS011;64763;48.928;8.474;2023-05-01T00:25:37;9.43;;;6.18;;
76065;SDS011;64763;48.928;8.474;2023-05-01T00:28:03;9.10;;;6.72;;
76065;SDS011;64763;48.928;8.474;2023-05-01T00:30:31;12.50;;;9.48;;
76065;SDS011;64763;48.928;8.474;2023-05-01T00:32:56;14.40;;;9.35;;
76065;SDS011;64763;48.928;8.474;2023-05-01T00:35:23;14.60;;;9.63;;
76065;SDS011;64763;48.928;8.474;2023-05-01T00:37:48;17.25;;;10.40;;
76065;SDS011;64763;48.928;8.474;2023-05-01T00:40:13;14.57;;;10.48;;
76065;SDS011;64763;48.928;8.474;2023-05-01T00:42:39;14.23;;;10.52;;
76065;SDS011;64763;48.928;8.474;2023-05-01T00:45:05;12.40;;;9.70;;
76065;SDS011;64763;48.928;8.474;2023-05-01T00:47:31;13.90;;;9.23;;
76065;SDS011;64763;48.928;8.474;2023-05-01T00:49:58;11.45;;;8.10;;
76065;SDS011;64763;48.928;8.474;2023-05-01T00:52:23;9.55;;;7.20;;
76065;SDS011;64763;48.928;8.474;2023-05-01T00:54:49;8.38;;;5.90;;
76065;SDS011;64763;48.928;8.474;2023-05-01T00:57:17;9.35;;;6.20;;
76065;SDS011;64763;48.928;8.474;2023-05-01T00:59:46;9.02;;;5.65;;
76065;SDS011;64763;48.928;8.474;2023-05-01T01:02:11;7.75;;;5.28;;
76065;SDS011;64763;48.928;8.474;2023-05-01T01:04:39;9.48;;;5.75;;
76065;SDS011;64763;48.928;8.474;2023-05-01T01:07:29;7.32;;;5.47;;
76065;SDS011;64763;48.928;8.474;2023-05-01T01:14:58;6.78;;;5.43;;
76065;SDS011;64763;48.928;8.474;2023-05-01T01:20:30;5.97;;;5.07;;
76065;SDS011;64763;48.928;8.474;2023-05-01T01:23:10;7.57;;;5.13;;
76065;SDS011;64763;48.928;8.474;2023-05-01T01:33:53;7.53;;;4.88;;
76065;SDS011;64763;48.928;8.474;2023-05-01T01:36:37;6.50;;;4.78;;
76065;SDS011;64763;48.928;8.474;2023-05-01T01:41:45;6.97;;;4.72;;
76065;SDS011;64763;48.928;8.474;2023-05-01T01:44:32;7.38;;;5.07;;
76065;SDS011;64763;48.928;8.474;2023-05-01T01:47:03;6.57;;;5.20;;
76065;SDS011;64763;48.928;8.474;2023-05-01T01:49:30;6.90;;;4.97;;
76065;SDS011;64763;48.928;8.474;2023-05-01T01:51:56;5.95;;;4.80;;
76065;SDS011;64763;48.928;8.474;2023-05-01T01:54:29;7.60;;;5.90;;
76065;SDS011;64763;48.928;8.474;2023-05-01T01:56:58;8.80;;;5.03;;
76065;SDS011;64763;48.928;8.474;2023-05-01T01:59:23;7.60;;;5.32;;
76065;SDS011;64763;48.928;8.474;2023-05-01T02:01:49;8.18;;;5.63;;
76065;SDS011;64763;48.928;8.474;2023-05-01T02:04:15;7.20;;;5.80;;
76065;SDS011;64763;48.928;8.474;2023-05-01T02:06:42;7.03;;;5.28;;
76065;SDS011;64763;48.928;8.474;2023-05-01T02:09:08;6.68;;;5.18;;
76065;SDS011;64763;48.928;8.474;2023-05-01T02:11:34;6.30;;;5.50;;
76065;SDS011;64763;48.928;8.474;2023-05-01T02:14:01;10.55;;;5.10;;
76065;SDS011;64763;48.928;8.474;2023-05-01T02:16:27;7.90;;;6.05;;
76065;SDS011;64763;48.928;8.474;2023-05-01T02:18:54;8.77;;;5.80;;
76065;SDS011;64763;48.928;8.474;2023-05-01T02:21:19;8.27;;;5.57;;
76065;SDS011;64763;48.928;8.474;2023-05-01T02:23:46;8.82;;;6.53;;
76065;SDS011;64763;48.928;8.474;2023-05-01T02:26:14;7.68;;;5.63;;
76065;SDS011;64763;48.928;8.474;2023-05-01T02:28:41;9.40;;;5.60;;
76065;SDS011;64763;48.928;8.474;2023-05-01T02:31:06;9.15;;;6.20;;
76065;SDS011;64763;48.928;8.474;2023-05-01T02:33:31;9.75;;;5.63;;
76065;SDS011;64763;48.928;8.474;2023-05-01T02:35:57;9.85;;;5.90;;
76065;SDS011;64763;48.928;8.474;2023-05-01T02:38:22;8.40;;;5.72;;
76065;SDS011;64763;48.928;8.474;2023-05-01T02:40:51;5.85;;;4.80;;
76065;SDS011;64763;48.928;8.474;2023-05-01T02:43:19;5.35;;;4.28;;
76065;SDS011;64763;48.928;8.474;2023-05-01T02:45:45;6.50;;;4.75;;
76065;SDS011;64763;48.928;8.474;2023-05-01T02:48:12;7.05;;;4.65;;
76065;SDS011;64763;48.928;8.474;2023-05-01T02:50:41;5.78;;;4.60;;
76065;SDS011;64763;48.928;8.474;2023-05-01T02:53:09;7.85;;;4.97;;
76065;SDS011;64763;48.928;8.474;2023-05-01T02:55:35;6.72;;;4.90;;
76065;SDS011;64763;48.928;8.474;2023-05-01T02:58:01;5.68;;;4.40;;
76065;SDS011;64763;48.928;8.474;2023-05-01T03:00:26;6.78;;;4.95;;
76065;SDS011;64763;48.928;8.474;2023-05-01T03:02:52;5.18;;;4.20;;
76065;SDS011;64763;48.928;8.474;2023-05-01T03:05:17;7.82;;;4.75;;
76065;SDS011;64763;48.928;8.474;2023-05-01T03:07:43;7.38;;;5.13;;
76065;SDS011;64763;48.928;8.474;2023-05-01T03:10:09;6.57;;;5.30;;
76065;SDS011;64763;48.928;8.474;2023-05-01T03:12:35;6.55;;;5.20;;
76065;SDS011;64763;48.928;8.474;2023-05-01T03:15:00;6.65;;;5.00;;
76065;SDS011;64763;48.928;8.474;2023-05-01T03:17:25;7.88;;;4.90;;
76065;SDS011;64763;48.928;8.474;2023-05-01T03:19:51;8.05;;;5.10;;
76065;SDS011;64763;48.928;8.474;2023-05-01T03:22:16;7.05;;;5.13;;
76065;SDS011;64763;48.928;8.474;2023-05-01T03:24:42;6.80;;;4.85;;
76065;SDS011;64763;48.928;8.474;2023-05-01T03:27:08;7.72;;;5.25;;
76065;SDS011;64763;48.928;8.474;2023-05-01T03:29:33;6.45;;;4.68;;
76065;SDS011;64763;48.928;8.474;2023-05-01T03:31:59;6.03;;;5.00;;
76065;SDS011;64763;48.928;8.474;2023-05-01T03:34:25;6.53;;;4.30;;
76065;SDS011;64763;48.928;8.474;2023-05-01T03:36:51;6.50;;;4.40;;
76065;SDS011;64763;48.928;8.474;2023-05-01T03:39:17;6.35;;;4.60;;
76065;SDS011;64763;48.928;8.474;2023-05-01T03:41:43;6.90;;;5.10;;
76065;SDS011;64763;48.928;8.474;2023-05-01T03:44:08;6.88;;;4.78;;
76065;SDS011;64763;48.928;8.474;2023-05-01T03:46:33;6.40;;;4.55;;
76065;SDS011;64763;48.928;8.474;2023-05-01T03:48:59;7.53;;;4.88;;
76065;SDS011;64763;48.928;8.474;2023-05-01T03:51:24;6.80;;;4.72;;
76065;SDS011;64763;48.928;8.474;2023-05-01T03:53:51;6.55;;;4.32;;
76065;SDS011;64763;48.928;8.474;2023-05-01T03:56:16;5.30;;;4.28;;
76065;SDS011;64763;48.928;8.474;2023-05-01T03:58:42;6.15;;;4.80;;
76065;SDS011;64763;48.928;8.474;2023-05-01T04:01:07;5.68;;;4.43;;
76065;SDS011;64763;48.928;8.474;2023-05-01T04:03:33;6.20;;;4.57;;
76065;SDS011;64763;48.928;8.474;2023-05-01T04:05:58;7.28;;;4.80;;
76065;SDS011;64763;48.928;8.474;2023-05-01T04:08:23;5.90;;;4.72;;
76065;SDS011;64763;48.928;8.474;2023-05-01T04:10:49;8.00;;;5.13;;
76065;SDS011;64763;48.928;8.474;2023-05-01T04:13:14;11.68;;;6.78;;
76065;SDS011;64763;48.928;8.474;2023-05-01T04:15:43;16.05;;;9.25;;
76065;SDS011;64763;48.928;8.474;2023-05-01T04:18:09;11.30;;;8.23;;
76065;SDS011;64763;48.928;8.474;2023-05-01T04:20:35;7.57;;;6.15;;
76065;SDS011;64763;48.928;8.474;2023-05-01T04:23:01;7.18;;;5.40;;
76065;SDS011;64763;48.928;8.474;2023-05-01T04:25:26;7.53;;;4.90;;
76065;SDS011;64763;48.928;8.474;2023-05-01T04:27:52;6.72;;;5.28;;
76065;SDS011;64763;48.928;8.474;2023-05-01T04:30:17;7.40;;;5.38;;
76065;SDS011;64763;48.928;8.474;2023-05-01T04:32:42;8.38;;;5.63;;
76065;SDS011;64763;48.928;8.474;2023-05-01T04:35:08;8.88;;;4.82;;
76065;SDS011;64763;48.928;8.474;2023-05-01T04:37:35;7.25;;;4.80;;
76065;SDS011;64763;48.928;8.474;2023-05-01T04:40:00;8.90;;;5.10;;
76065;SDS011;64763;48.928;8.474;2023-05-01T04:42:29;6.95;;;5.65;;
76065;SDS011;64763;48.928;8.474;2023-05-01T04:44:55;7.97;;;4.75;;
76065;SDS011;64763;48.928;8.474;2023-05-01T04:47:21;6.35;;;5.13;;
76065;SDS011;64763;48.928;8.474;2023-05-01T04:49:46;6.65;;;4.85;;
76065;SDS011;64763;48.928;8.474;2023-05-01T04:52:11;7.40;;;5.07;;
76065;SDS011;64763;48.928;8.474;2023-05-01T04:54:37;7.93;;;5.72;;
76065;SDS011;64763;48.928;8.474;2023-05-01T04:57:02;12.25;;;5.30;;
76065;SDS011;64763;48.928;8.474;2023-05-01T04:59:28;9.27;;;5.53;;
76065;SDS011;64763;48.928;8.474;2023-05-01T05:01:53;7.78;;;5.53;;
76065;SDS011;64763;48.928;8.474;2023-05-01T05:04:18;6.53;;;4.85;;
76065;SDS011;64763;48.928;8.474;2023-05-01T05:06:44;6.90;;;5.45;;
76065;SDS011;64763;48.928;8.474;2023-05-01T05:09:09;9.05;;;5.40;;
76065;SDS011;64763;48.928;8.474;2023-05-01T05:11:35;6.97;;;5.32;;
76065;SDS011;64763;48.928;8.474;2023-05-01T05:14:00;8.25;;;5.28;;
76065;SDS011;64763;48.928;8.474;2023-05-01T05:16:26;6.88;;;5.53;;
76065;SDS011;64763;48.928;8.474;2023-05-01T05:18:53;7.28;;;5.03;;
76065;SDS011;64763;48.928;8.474;2023-05-01T05:21:20;7.13;;;5.45;;
76065;SDS011;64763;48.928;8.474;2023-05-01T05:23:45;7.75;;;5.10;;
76065;SDS011;64763;48.928;8.474;2023-05-01T05:26:10;5.70;;;4.55;;
76065;SDS011;64763;48.928;8.474;2023-05-01T05:28:36;7.13;;;4.80;;
76065;SDS011;64763;48.928;8.474;2023-05-01T05:31:01;7.25;;;4.90;;
76065;SDS011;64763;48.928;8.474;2023-05-01T05:33:26;7.07;;;4.78;;
76065;SDS011;64763;48.928;8.474;2023-05-01T05:35:53;6.68;;;5.15;;
76065;SDS011;64763;48.928;8.474;2023-05-01T05:38:18;7.57;;;4.90;;
76065;SDS011;64763;48.928;8.474;2023-05-01T05:40:44;6.38;;;5.20;;
76065;SDS011;64763;48.928;8.474;2023-05-01T05:43:09;7.75;;;5.10;;
76065;SDS011;64763;48.928;8.474;2023-05-01T05:45:35;6.68;;;4.57;;
76065;SDS011;64763;48.928;8.474;2023-05-01T05:48:01;6.97;;;5.13;;
76065;SDS011;64763;48.928;8.474;2023-05-01T05:50:26;5.32;;;4.20;;
76065;SDS011;64763;48.928;8.474;2023-05-01T05:52:52;6.68;;;4.60;;
76065;SDS011;64763;48.928;8.474;2023-05-01T05:55:17;6.82;;;4.32;;
76065;SDS011;64763;48.928;8.474;2023-05-01T05:57:42;5.70;;;4.43;;
76065;SDS011;64763;48.928;8.474;2023-05-01T06:00:08;5.38;;;4.43;;
76065;SDS011;64763;48.928;8.474;2023-05-01T06:02:34;6.25;;;4.05;;
76065;SDS011;64763;48.928;8.474;2023-05-01T06:05:00;6.38;;;3.97;;
76065;SDS011;64763;48.928;8.474;2023-05-01T06:07:25;5.13;;;3.90;;
76065;SDS011;64763;48.928;8.474;2023-05-01T06:09:52;6.75;;;4.20;;
76065;SDS011;64763;48.928;8.474;2023-05-01T06:12:17;5.70;;;4.53;;
76065;SDS011;64763;48.928;8.474;2023-05-01T06:14:43;6.15;;;4.80;;
76065;SDS011;64763;48.928;8.474;2023-05-01T06:17:08;6.10;;;5.10;;
76065;SDS011;64763;48.928;8.474;2023-05-01T06:19:34;6.13;;;5.07;;
76065;SDS011;64763;48.928;8.474;2023-05-01T06:22:00;6.80;;;4.85;;
76065;SDS011;64763;48.928;8.474;2023-05-01T06:24:25;6.15;;;5.07;;
76065;SDS011;64763;48.928;8.474;2023-05-01T06:26:51;7.50;;;5.18;;
76065;SDS011;64763;48.928;8.474;2023-05-01T06:29:17;7.30;;;4.55;;
76065;SDS011;64763;48.928;8.474;2023-05-01T06:31:42;5.63;;;4.78;;
76065;SDS011;64763;48.928;8.474;2023-05-01T06:34:08;6.22;;;4.63;;
76065;SDS011;64763;48.928;8.474;2023-05-01T06:36:33;5.57;;;4.20;;
76065;SDS011;64763;48.928;8.474;2023-05-01T06:38:59;6.78;;;4.20;;
76065;SDS011;64763;48.928;8.474;2023-05-01T06:41:24;6.70;;;4.75;;
76065;SDS011;64763;48.928;8.474;2023-05-01T06:43:50;5.43;;;4.78;;
76065;SDS011;64763;48.928;8.474;2023-05-01T06:46:15;5.10;;;4.40;;
76065;SDS011;64763;48.928;8.474;2023-05-01T06:48:41;6.85;;;4.63;;
76065;SDS011;64763;48.928;8.474;2023-05-01T06:51:06;6.03;;;4.43;;
76065;SDS011;64763;48.928;8.474;2023-05-01T06:53:32;5.32;;;4.47;;
76065;SDS011;64763;48.928;8.474;2023-05-01T06:55:57;7.53;;;5.45;;
76065;SDS011;64763;48.928;8.474;2023-05-01T06:58:22;7.30;;;4.47;;
76065;SDS011;64763;48.928;8.474;2023-05-01T07:00:48;6.57;;;5.13;;
76065;SDS011;64763;48.928;8.474;2023-05-01T07:03:13;6.07;;;4.90;;
76065;SDS011;64763;48.928;8.474;2023-05-01T07:05:38;6.43;;;4.60;;
76065;SDS011;64763;48.928;8.474;2023-05-01T07:08:04;6.18;;;5.03;;
76065;SDS011;64763;48.928;8.474;2023-05-01T07:10:30;6.18;;;4.60;;
76065;SDS011;64763;48.928;8.474;2023-05-01T07:12:56;5.53;;;4.55;;
76065;SDS011;64763;48.928;8.474;2023-05-01T07:15:21;5.93;;;4.22;;
76065;SDS011;64763;48.928;8.474;2023-05-01T07:17:49;5.55;;;4.95;;
76065;SDS011;64763;48.928;8.474;2023-05-01T07:20:15;5.30;;;4.50;;
76065;SDS011;64763;48.928;8.474;2023-05-01T07:22:41;7.47;;;4.68;;
76065;SDS011;64763;48.928;8.474;2023-05-01T07:25:07;5.72;;;4.60;;
76065;SDS011;64763;48.928;8.474;2023-05-01T07:27:32;7.80;;;5.28;;
76065;SDS011;64763;48.928;8.474;2023-05-01T07:29:58;6.18;;;4.90;;
76065;SDS011;64763;48.928;8.474;2023-05-01T07:32:24;7.18;;;4.72;;
76065;SDS011;64763;48.928;8.474;2023-05-01T07:34:50;6.47;;;5.15;;
76065;SDS011;64763;48.928;8.474;2023-05-01T07:37:15;5.93;;;4.90;;
76065;SDS011;64763;48.928;8.474;2023-05-01T07:39:42;6.28;;;4.53;;
76065;SDS011;64763;48.928;8.474;2023-05-01T07:42:08;7.68;;;4.60;;
76065;SDS011;64763;48.928;8.474;2023-05-01T07:44:33;7.60;;;4.15;;
76065;SDS011;64763;48.928;8.474;2023-05-01T07:47:02;6.18;;;4.55;;
76065;SDS011;64763;48.928;8.474;2023-05-01T07:49:28;5.75;;;4.20;;
76065;SDS011;64763;48.928;8.474;2023-05-01T07:51:54;6.32;;;4.07;;
76065;SDS011;64763;48.928;8.474;2023-05-01T07:54:19;5.00;;;4.07;;
76065;SDS011;64763;48.928;8.474;2023-05-01T07:56:46;5.97;;;4.15;;
76065;SDS011;64763;48.928;8.474;2023-05-01T07:59:11;8.00;;;4.28;;
76065;SDS011;64763;48.928;8.474;2023-05-01T08:01:37;6.28;;;4.40;;
76065;SDS011;64763;48.928;8.474;2023-05-01T08:04:02;7.43;;;4.78;;
76065;SDS011;64763;48.928;8.474;2023-05-01T08:06:27;6.63;;;4.90;;
76065;SDS011;64763;48.928;8.474;2023-05-01T08:08:54;5.40;;;4.55;;
76065;SDS011;64763;48.928;8.474;2023-05-01T08:11:19;6.57;;;4.50;;
76065;SDS011;64763;48.928;8.474;2023-05-01T08:13:45;5.95;;;4.65;;
76065;SDS011;64763;48.928;8.474;2023-05-01T08:16:10;6.68;;;4.95;;
76065;SDS011;64763;48.928;8.474;2023-05-01T08:18:36;5.50;;;4.50;;
76065;SDS011;64763;48.928;8.474;2023-05-01T08:21:01;5.78;;;4.50;;
76065;SDS011;64763;48.928;8.474;2023-05-01T08:23:26;12.70;;;4.60;;
76065;SDS011;64763;48.928;8.474;2023-05-01T08:25:52;7.22;;;5.40;;
76065;SDS011;64763;48.928;8.474;2023-05-01T08:28:18;8.63;;;5.38;;
76065;SDS011;64763;48.928;8.474;2023-05-01T08:30:46;9.85;;;5.93;;
76065;SDS011;64763;48.928;8.474;2023-05-01T08:33:13;9.23;;;5.97;;
76065;SDS011;64763;48.928;8.474;2023-05-01T08:35:38;7.65;;;6.03;;
76065;SDS011;64763;48.928;8.474;2023-05-01T08:38:04;8.98;;;6.10;;
76065;SDS011;64763;48.928;8.474;2023-05-01T08:40:30;7.40;;;6.22;;
76065;SDS011;64763;48.928;8.474;2023-05-01T08:42:57;8.75;;;6.43;;
76065;SDS011;64763;48.928;8.474;2023-05-01T08:45:24;9.15;;;6.32;;
76065;SDS011;64763;48.928;8.474;2023-05-01T08:47:51;8.65;;;6.88;;
76065;SDS011;64763;48.928;8.474;2023-05-01T08:50:18;7.78;;;6.35;;
76065;SDS011;64763;48.928;8.474;2023-05-01T08:52:46;8.32;;;6.05;;
76065;SDS011;64763;48.928;8.474;2023-05-01T08:55:13;7.32;;;5.40;;
76065;SDS011;64763;48.928;8.474;2023-05-01T08:57:45;9.63;;;5.88;;
76065;SDS011;64763;48.928;8.474;2023-05-01T09:00:13;9.02;;;6.85;;
76065;SDS011;64763;48.928;8.474;2023-05-01T09:02:42;7.13;;;5.97;;
76065;SDS011;64763;48.928;8.474;2023-05-01T09:05:08;10.18;;;7.25;;
76065;SDS011;64763;48.928;8.474;2023-05-01T09:07:33;9.10;;;6.47;;
76065;SDS011;64763;48.928;8.474;2023-05-01T09:09:59;9.65;;;6.50;;
76065;SDS011;64763;48.928;8.474;2023-05-01T09:12:25;8.73;;;7.05;;
76065;SDS011;64763;48.928;8.474;2023-05-01T09:14:51;10.38;;;6.93;;
76065;SDS011;64763;48.928;8.474;2023-05-01T09:17:17;8.50;;;7.28;;
76065;SDS011;64763;48.928;8.474;2023-05-01T09:19:44;9.00;;;7.03;;
76065;SDS011;64763;48.928;8.474;2023-05-01T09:22:09;8.93;;;6.47;;
76065;SDS011;64763;48.928;8.474;2023-05-01T09:24:35;8.27;;;6.60;;
76065;SDS011;64763;48.928;8.474;2023-05-01T09:27:00;7.68;;;6.30;;
76065;SDS011;64763;48.928;8.474;2023-05-01T09:29:35;8.32;;;6.15;;
76065;SDS011;64763;48.928;8.474;2023-05-01T09:32:11;9.35;;;6.05;;
76065;SDS011;64763;48.928;8.474;2023-05-01T09:34:37;7.40;;;5.72;;
76065;SDS011;64763;48.928;8.474;2023-05-01T09:37:02;8.18;;;6.45;;
76065;SDS011;64763;48.928;8.474;2023-05-01T09:39:28;8.38;;;6.00;;
76065;SDS011;64763;48.928;8.474;2023-05-01T09:41:53;7.45;;;5.55;;
76065;SDS011;64763;48.928;8.474;2023-05-01T09:44:18;6.03;;;4.85;;
76065;SDS011;64763;48.928;8.474;2023-05-01T09:46:44;7.40;;;4.88;;
76065;SDS011;64763;48.928;8.474;2023-05-01T09:49:09;6.55;;;5.10;;
76065;SDS011;64763;48.928;8.474;2023-05-01T09:51:35;6.25;;;5.45;;
76065;SDS011;64763;48.928;8.474;2023-05-01T09:54:01;6.03;;;4.93;;
76065;SDS011;64763;48.928;8.474;2023-05-01T09:56:28;6.47;;;5.20;;
76065;SDS011;64763;48.928;8.474;2023-05-01T09:58:58;8.23;;;5.30;;
76065;SDS011;64763;48.928;8.474;2023-05-01T10:01:39;8.13;;;5.28;;
76065;SDS011;64763;48.928;8.474;2023-05-01T10:04:06;8.77;;;5.53;;
76065;SDS011;64763;48.928;8.474;2023-05-01T10:06:32;7.55;;;5.72;;
76065;SDS011;64763;48.928;8.474;2023-05-01T10:08:58;7.60;;;5.68;;
76065;SDS011;64763;48.928;8.474;2023-05-01T10:11:23;6.75;;;5.40;;
76065;SDS011;64763;48.928;8.474;2023-05-01T10:14:07;6.38;;;5.28;;
76065;SDS011;64763;48.928;8.474;2023-05-01T10:16:37;7.45;;;5.40;;
76065;SDS011;64763;48.928;8.474;2023-05-01T10:19:03;9.27;;;6.10;;
76065;SDS011;64763;48.928;8.474;2023-05-01T10:21:29;10.88;;;6.20;;
76065;SDS011;64763;48.928;8.474;2023-05-01T10:23:55;7.07;;;5.80;;
76065;SDS011;64763;48.928;8.474;2023-05-01T10:26:21;10.32;;;6.20;;
76065;SDS011;64763;48.928;8.474;2023-05-01T10:28:47;7.47;;;5.53;;
76065;SDS011;64763;48.928;8.474;2023-05-01T10:31:13;8.18;;;5.00;;
76065;SDS011;64763;48.928;8.474;2023-05-01T10:33:39;8.18;;;5.53;;
76065;SDS011;64763;48.928;8.474;2023-05-01T10:36:07;8.77;;;5.60;;
76065;SDS011;64763;48.928;8.474;2023-05-01T10:38:35;7.15;;;5.32;;
76065;SDS011;64763;48.928;8.474;2023-05-01T10:41:02;6.80;;;4.80;;
76065;SDS011;64763;48.928;8.474;2023-05-01T10:43:31;5.65;;;4.97;;
76065;SDS011;64763;48.928;8.474;2023-05-01T10:53:41;6.57;;;4.80;;
76065;SDS011;64763;48.928;8.474;2023-05-01T11:09:42;7.35;;;4.97;;
76065;SDS011;64763;48.928;8.474;2023-05-01T11:12:12;6.65;;;4.93;;
76065;SDS011;64763;48.928;8.474;2023-05-01T11:20:03;7.82;;;6.00;;
76065;SDS011;64763;48.928;8.474;2023-05-01T11:22:33;8.23;;;6.40;;
76065;SDS011;64763;48.928;8.474;2023-05-01T11:25:03;8.50;;;5.80;;
76065;SDS011;64763;48.928;8.474;2023-05-01T11:27:31;6.63;;;4.70;;
76065;SDS011;64763;48.928;8.474;2023-05-01T11:30:00;7.85;;;5.93;;
76065;SDS011;64763;48.928;8.474;2023-05-01T11:32:26;8.38;;;5.97;;
76065;SDS011;64763;48.928;8.474;2023-05-01T11:34:52;7.70;;;6.00;;
76065;SDS011;64763;48.928;8.474;2023-05-01T11:37:18;7.68;;;6.30;;
76065;SDS011;64763;48.928;8.474;2023-05-01T11:39:47;7.68;;;5.93;;
76065;SDS011;64763;48.928;8.474;2023-05-01T11:42:16;6.60;;;5.78;;
76065;SDS011;64763;48.928;8.474;2023-05-01T11:45:03;8.00;;;6.22;;
76065;SDS011;64763;48.928;8.474;2023-05-01T11:47:33;7.47;;;6.20;;
76065;SDS011;64763;48.928;8.474;2023-05-01T11:49:59;8.65;;;5.95;;
76065;SDS011;64763;48.928;8.474;2023-05-01T11:52:25;7.88;;;6.20;;
76065;SDS011;64763;48.928;8.474;2023-05-01T11:54:51;7.47;;;6.10;;
76065;SDS011;64763;48.928;8.474;2023-05-01T11:57:17;9.77;;;6.25;;
76065;SDS011;64763;48.928;8.474;2023-05-01T11:59:45;6.85;;;5.75;;
76065;SDS011;64763;48.928;8.474;2023-05-01T12:02:20;7.38;;;6.10;;
76065;SDS011;64763;48.928;8.474;2023-05-01T12:04:46;6.47;;;5.00;;
76065;SDS011;64763;48.928;8.474;2023-05-01T12:07:21;5.85;;;4.72;;
76065;SDS011;64763;48.928;8.474;2023-05-01T12:09:47;6.10;;;5.50;;
76065;SDS011;64763;48.928;8.474;2023-05-01T12:12:13;5.63;;;5.07;;
76065;SDS011;64763;48.928;8.474;2023-05-01T12:14:38;6.82;;;5.43;;
76065;SDS011;64763;48.928;8.474;2023-05-01T12:17:04;6.45;;;4.95;;
76065;SDS011;64763;48.928;8.474;2023-05-01T12:19:31;5.95;;;5.00;;
76065;SDS011;64763;48.928;8.474;2023-05-01T12:22:14;6.82;;;5.53;;
76065;SDS011;64763;48.928;8.474;2023-05-01T12:24:50;5.53;;;4.70;;
76065;SDS011;64763;48.928;8.474;2023-05-01T12:27:19;6.22;;;5.28;;
76065;SDS011;64763;48.928;8.474;2023-05-01T12:29:44;8.00;;;6.10;;
76065;SDS011;64763;48.928;8.474;2023-05-01T12:32:11;6.55;;;5.40;;
76065;SDS011;64763;48.928;8.474;2023-05-01T12:34:36;7.63;;;6.82;;
76065;SDS011;64763;48.928;8.474;2023-05-01T12:37:02;7.60;;;5.35;;
76065;SDS011;64763;48.928;8.474;2023-05-01T12:39:34;7.63;;;5.57;;
76065;SDS011;64763;48.928;8.474;2023-05-01T12:42:02;6.10;;;5.13;;
76065;SDS011;64763;48.928;8.474;2023-05-01T12:44:27;6.13;;;5.40;;
76065;SDS011;64763;48.928;8.474;2023-05-01T12:47:00;7.20;;;5.40;;
76065;SDS011;64763;48.928;8.474;2023-05-01T12:49:27;6.05;;;5.18;;
76065;SDS011;64763;48.928;8.474;2023-05-01T12:51:54;6.57;;;5.60;;
76065;SDS011;64763;48.928;8.474;2023-05-01T12:56:46;8.88;;;6.88;;
76065;SDS011;64763;48.928;8.474;2023-05-01T12:59:29;7.30;;;6.35;;
76065;SDS011;64763;48.928;8.474;2023-05-01T13:04:21;11.82;;;6.50;;
76065;SDS011;64763;48.928;8.474;2023-05-01T13:06:47;9.38;;;6.88;;
76065;SDS011;64763;48.928;8.474;2023-05-01T13:09:13;7.47;;;5.93;;
76065;SDS011;64763;48.928;8.474;2023-05-01T13:11:40;7.50;;;6.20;;
76065;SDS011;64763;48.928;8.474;2023-05-01T13:14:06;9.85;;;7.15;;
76065;SDS011;64763;48.928;8.474;2023-05-01T13:16:44;8.50;;;6.97;;
76065;SDS011;64763;48.928;8.474;2023-05-01T13:19:12;9.65;;;7.15;;
76065;SDS011;64763;48.928;8.474;2023-05-01T13:21:44;9.35;;;7.40;;
76065;SDS011;64763;48.928;8.474;2023-05-01T13:24:12;9.25;;;7.35;;
76065;SDS011;64763;48.928;8.474;2023-05-01T13:26:37;11.77;;;7.70;;
76065;SDS011;64763;48.928;8.474;2023-05-01T13:29:03;10.27;;;7.55;;
76065;SDS011;64763;48.928;8.474;2023-05-01T13:31:29;10.25;;;7.88;;
76065;SDS011;64763;48.928;8.474;2023-05-01T13:33:56;10.98;;;7.60;;
76065;SDS011;64763;48.928;8.474;2023-05-01T13:36:22;8.75;;;7.00;;
76065;SDS011;64763;48.928;8.474;2023-05-01T13:38:51;9.70;;;7.47;;
76065;SDS011;64763;48.928;8.474;2023-05-01T13:41:21;11.13;;;7.45;;
76065;SDS011;64763;48.928;8.474;2023-05-01T13:43:48;9.50;;;6.95;;
76065;SDS011;64763;48.928;8.474;2023-05-01T13:46:15;8.32;;;7.47;;
76065;SDS011;64763;48.928;8.474;2023-05-01T13:48:41;9.80;;;6.95;;
76065;SDS011;64763;48.928;8.474;2023-05-01T13:51:07;9.35;;;6.97;;
76065;SDS011;64763;48.928;8.474;2023-05-01T13:53:37;8.48;;;7.00;;
76065;SDS011;64763;48.928;8.474;2023-05-01T13:56:03;8.57;;;6.75;;
76065;SDS011;64763;48.928;8.474;2023-05-01T13:58:29;8.82;;;7.35;;
76065;SDS011;64763;48.928;8.474;2023-05-01T14:00:55;7.90;;;6.60;;
76065;SDS011;64763;48.928;8.474;2023-05-01T14:03:21;8.70;;;6.97;;
76065;SDS011;64763;48.928;8.474;2023-05-01T14:05:46;8.93;;;6.75;;
76065;SDS011;64763;48.928;8.474;2023-05-01T14:08:12;9.48;;;7.22;;
76065;SDS011;64763;48.928;8.474;2023-05-01T14:10:37;8.00;;;6.72;;
76065;SDS011;64763;48.928;8.474;2023-05-01T14:13:03;7.82;;;7.03;;
76065;SDS011;64763;48.928;8.474;2023-05-01T14:15:29;9.40;;;6.75;;
76065;SDS011;64763;48.928;8.474;2023-05-01T14:17:57;10.10;;;7.07;;
76065;SDS011;64763;48.928;8.474;2023-05-01T14:20:24;11.07;;;7.10;;
76065;SDS011;64763;48.928;8.474;2023-05-01T14:22:50;8.88;;;7.45;;
76065;SDS011;64763;48.928;8.474;2023-05-01T14:25:25;9.02;;;7.20;;
76065;SDS011;64763;48.928;8.474;2023-05-01T14:27:51;10.82;;;8.10;;
76065;SDS011;64763;48.928;8.474;2023-05-01T14:30:25;9.68;;;7.28;;
76065;SDS011;64763;48.928;8.474;2023-05-01T14:32:54;8.35;;;6.60;;
76065;SDS011;64763;48.928;8.474;2023-05-01T14:35:20;10.50;;;7.75;;
76065;SDS011;64763;48.928;8.474;2023-05-01T14:37:47;10.20;;;7.22;;
76065;SDS011;64763;48.928;8.474;2023-05-01T14:40:12;9.40;;;7.45;;
76065;SDS011;64763;48.928;8.474;2023-05-01T14:42:41;9.73;;;6.72;;
76065;SDS011;64763;48.928;8.474;2023-05-01T14:45:16;9.18;;;6.25;;
76065;SDS011;64763;48.928;8.474;2023-05-01T14:47:45;7.85;;;6.40;;
76065;SDS011;64763;48.928;8.474;2023-05-01T14:50:18;8.95;;;7.00;;
76065;SDS011;64763;48.928;8.474;2023-05-01T14:52:45;6.68;;;5.50;;
76065;SDS011;64763;48.928;8.474;2023-05-01T14:55:10;9.32;;;5.05;;
76065;SDS011;64763;48.928;8.474;2023-05-01T14:57:36;7.25;;;4.85;;
76065;SDS011;64763;48.928;8.474;2023-05-01T15:00:02;11.43;;;4.97;;
76065;SDS011;64763;48.928;8.474;2023-05-01T15:02:30;8.07;;;5.35;;
76065;SDS011;64763;48.928;8.474;2023-05-01T15:04:56;7.03;;;4.95;;
76065;SDS011;64763;48.928;8.474;2023-05-01T15:07:24;7.60;;;4.95;;
76065;SDS011;64763;48.928;8.474;2023-05-01T15:09:49;7.38;;;4.93;;
76065;SDS011;64763;48.928;8.474;2023-05-01T15:12:15;6.68;;;5.18;;
76065;SDS011;64763;48.928;8.474;2023-05-01T15:14:41;6.70;;;4.95;;
76065;SDS011;64763;48.928;8.474;2023-05-01T15:17:06;6.22;;;4.63;;
76065;SDS011;64763;48.928;8.474;2023-05-01T15:19:31;7.22;;;5.43;;
76065;SDS011;64763;48.928;8.474;2023-05-01T15:21:57;6.53;;;4.18;;
76065;SDS011;64763;48.928;8.474;2023-05-01T15:24:22;4.97;;;3.30;;
76065;SDS011;64763;48.928;8.474;2023-05-01T15:26:48;5.90;;;3.65;;
76065;SDS011;64763;48.928;8.474;2023-05-01T15:29:13;9.60;;;5.35;;
76065;SDS011;64763;48.928;8.474;2023-05-01T15:31:39;6.80;;;5.30;;
76065;SDS011;64763;48.928;8.474;2023-05-01T15:34:04;5.88;;;4.32;;